sensor_id;sensor_type;location;lat;lon;timestamp;pressure;altitude;pressure_sealevel;temperature;humidity
40117;BME280;25829;50.228;18.936;2023-04-16T00:00:18;98204.25;;;5.03;72.46
40117;BME280;25829;50.228;18.936;2023-04-16T00:03:19;98197.13;;;4.97;72.89
40117;BME280;25829;50.228;18.936;2023-04-16T00:06:21;98199.56;;;4.98;72.58
40117;BME280;25829;50.228;18.936;2023-04-16T00:09:22;98196.75;;;5.00;72.61
40117;BME280;25829;50.228;18.936;2023-04-16T00:12:26;98190.78;;;4.91;72.45
40117;BME280;25829;50.228;18.936;2023-04-16T00:15:30;98194.81;;;4.79;72.67
40117;BME280;25829;50.228;18.936;2023-04-16T00:18:31;98199.59;;;4.75;73.50
40117;BME280;25829;50.228;18.936;2023-04-16T00:21:32;98198.44;;;4.78;73.08
40117;BME280;25829;50.228;18.936;2023-04-16T00:24:32;98200.75;;;4.73;73.39
40117;BME280;25829;50.228;18.936;2023-04-16T00:27:37;98199.59;;;4.75;72.98
40117;BME280;25829;50.228;18.936;2023-04-16T00:30:38;98200.88;;;4.79;73.01
40117;BME280;25829;50.228;18.936;2023-04-16T00:33:41;98211.78;;;4.83;72.52
40117;BME280;25829;50.228;18.936;2023-04-16T00:36:42;98199.88;;;4.80;72.58
40117;BME280;25829;50.228;18.936;2023-04-16T00:39:43;98209.69;;;4.78;72.58
40117;BME280;25829;50.228;18.936;2023-04-16T00:42:44;98204.81;;;4.75;72.36
40117;BME280;25829;50.228;18.936;2023-04-16T00:45:45;98201.56;;;4.73;72.21
40117;BME280;25829;50.228;18.936;2023-04-16T00:48:46;98209.59;;;4.72;72.54
40117;BME280;25829;50.228;18.936;2023-04-16T00:51:51;98203.56;;;4.71;72.36
40117;BME280;25829;50.228;18.936;2023-04-16T00:54:52;98214.16;;;4.70;72.44
40117;BME280;25829;50.228;18.936;2023-04-16T00:57:53;98217.97;;;4.67;72.56
40117;BME280;25829;50.228;18.936;2023-04-16T01:00:54;98211.75;;;4.68;72.83
40117;BME280;25829;50.228;18.936;2023-04-16T01:03:56;98214.97;;;4.70;73.00
40117;BME280;25829;50.228;18.936;2023-04-16T01:07:02;98221.50;;;4.74;73.08
40117;BME280;25829;50.228;18.936;2023-04-16T01:10:03;98219.69;;;4.75;72.88
40117;BME280;25829;50.228;18.936;2023-04-16T01:13:04;98224.00;;;4.68;72.61
40117;BME280;25829;50.228;18.936;2023-04-16T01:16:06;98226.19;;;4.56;73.19
40117;BME280;25829;50.228;18.936;2023-04-16T01:19:08;98226.41;;;4.46;73.03
40117;BME280;25829;50.228;18.936;2023-04-16T01:22:08;98225.63;;;4.46;73.47
40117;BME280;25829;50.228;18.936;2023-04-16T01:25:13;98223.72;;;4.39;73.15
40117;BME280;25829;50.228;18.936;2023-04-16T01:28:15;98231.38;;;4.41;73.59
40117;BME280;25829;50.228;18.936;2023-04-16T01:31:17;98232.03;;;4.43;73.41
40117;BME280;25829;50.228;18.936;2023-04-16T01:34:38;98233.63;;;4.44;73.41
40117;BME280;25829;50.228;18.936;2023-04-16T01:37:42;98237.88;;;4.45;73.30
40117;BME280;25829;50.228;18.936;2023-04-16T01:40:54;98240.66;;;4.44;73.20
40117;BME280;25829;50.228;18.936;2023-04-16T01:43:54;98244.88;;;4.45;73.22
40117;BME280;25829;50.228;18.936;2023-04-16T01:46:58;98240.66;;;4.44;73.17
40117;BME280;25829;50.228;18.936;2023-04-16T01:49:59;98246.22;;;4.40;72.64
40117;BME280;25829;50.228;18.936;2023-04-16T01:53:00;98246.38;;;4.39;72.68
40117;BME280;25829;50.228;18.936;2023-04-16T01:56:05;98241.34;;;4.37;72.63
40117;BME280;25829;50.228;18.936;2023-04-16T01:59:06;98244.31;;;4.34;71.99
40117;BME280;25829;50.228;18.936;2023-04-16T02:02:14;98245.78;;;4.29;71.86
40117;BME280;25829;50.228;18.936;2023-04-16T02:05:15;98245.94;;;4.04;72.64
40117;BME280;25829;50.228;18.936;2023-04-16T02:08:16;98241.09;;;3.93;73.07
40117;BME280;25829;50.228;18.936;2023-04-16T02:11:23;98239.63;;;3.90;73.37
40117;BME280;25829;50.228;18.936;2023-04-16T02:14:24;98235.06;;;3.92;73.56
40117;BME280;25829;50.228;18.936;2023-04-16T02:17:25;98236.19;;;3.98;73.61
40117;BME280;25829;50.228;18.936;2023-04-16T02:20:42;98235.47;;;4.04;73.82
40117;BME280;25829;50.228;18.936;2023-04-16T02:23:43;98242.50;;;4.04;73.48
40117;BME280;25829;50.228;18.936;2023-04-16T02:26:47;98242.50;;;4.04;73.21
40117;BME280;25829;50.228;18.936;2023-04-16T02:29:51;98240.41;;;3.99;73.09
40117;BME280;25829;50.228;18.936;2023-04-16T02:32:52;98249.25;;;3.90;73.19
40117;BME280;25829;50.228;18.936;2023-04-16T02:35:56;98251.41;;;3.86;73.04
40117;BME280;25829;50.228;18.936;2023-04-16T02:39:03;98248.03;;;3.78;72.62
40117;BME280;25829;50.228;18.936;2023-04-16T02:42:04;98250.81;;;3.68;73.29
40117;BME280;25829;50.228;18.936;2023-04-16T02:45:06;98255.91;;;3.61;73.35
40117;BME280;25829;50.228;18.936;2023-04-16T02:48:07;98262.41;;;3.65;73.23
40117;BME280;25829;50.228;18.936;2023-04-16T02:51:09;98265.00;;;3.65;72.92
40117;BME280;25829;50.228;18.936;2023-04-16T02:54:09;98266.34;;;3.61;72.86
40117;BME280;25829;50.228;18.936;2023-04-16T02:57:10;98266.34;;;3.61;73.45
40117;BME280;25829;50.228;18.936;2023-04-16T03:00:11;98269.41;;;3.65;73.14
40117;BME280;25829;50.228;18.936;2023-04-16T03:03:13;98273.81;;;3.64;72.97
40117;BME280;25829;50.228;18.936;2023-04-16T03:06:13;98277.47;;;3.47;73.75
40117;BME280;25829;50.228;18.936;2023-04-16T03:09:14;98281.53;;;3.50;74.38
40117;BME280;25829;50.228;18.936;2023-04-16T03:12:18;98280.69;;;3.57;74.83
40117;BME280;25829;50.228;18.936;2023-04-16T03:15:19;98299.91;;;3.64;74.43
40117;BME280;25829;50.228;18.936;2023-04-16T03:18:20;98302.53;;;3.64;74.30
40117;BME280;25829;50.228;18.936;2023-04-16T03:21:27;98301.19;;;3.68;74.31
40117;BME280;25829;50.228;18.936;2023-04-16T03:24:27;98312.13;;;3.72;73.83
40117;BME280;25829;50.228;18.936;2023-04-16T03:27:35;98315.19;;;3.76;74.43
40117;BME280;25829;50.228;18.936;2023-04-16T03:30:38;98324.81;;;3.83;74.54
40117;BME280;25829;50.228;18.936;2023-04-16T03:33:44;98318.25;;;3.96;74.59
40117;BME280;25829;50.228;18.936;2023-04-16T03:36:45;98312.19;;;4.03;74.42
40117;BME280;25829;50.228;18.936;2023-04-16T03:39:52;98316.69;;;4.17;74.54
40117;BME280;25829;50.228;18.936;2023-04-16T03:42:58;98326.13;;;4.27;74.77
40117;BME280;25829;50.228;18.936;2023-04-16T03:46:06;98326.75;;;4.29;74.79
40117;BME280;25829;50.228;18.936;2023-04-16T03:49:16;98334.47;;;4.22;74.53
40117;BME280;25829;50.228;18.936;2023-04-16T03:52:23;98344.31;;;4.04;75.02
40117;BME280;25829;50.228;18.936;2023-04-16T03:55:33;98345.13;;;4.04;75.65
40117;BME280;25829;50.228;18.936;2023-04-16T03:58:42;98347.06;;;4.10;75.25
40117;BME280;25829;50.228;18.936;2023-04-16T04:01:46;98346.06;;;4.11;75.85
40117;BME280;25829;50.228;18.936;2023-04-16T04:04:47;98361.72;;;4.20;76.20
40117;BME280;25829;50.228;18.936;2023-04-16T04:07:51;98357.94;;;4.30;75.92
40117;BME280;25829;50.228;18.936;2023-04-16T04:11:06;98352.84;;;4.37;76.05
40117;BME280;25829;50.228;18.936;2023-04-16T04:14:09;98355.25;;;4.47;76.02
40117;BME280;25829;50.228;18.936;2023-04-16T04:17:10;98357.81;;;4.55;75.75
40117;BME280;25829;50.228;18.936;2023-04-16T04:20:23;98359.56;;;4.62;75.88
40117;BME280;25829;50.228;18.936;2023-04-16T04:23:37;98373.56;;;4.70;76.25
40117;BME280;25829;50.228;18.936;2023-04-16T04:26:40;98368.47;;;4.76;76.25
40117;BME280;25829;50.228;18.936;2023-04-16T04:29:44;98374.63;;;4.83;75.96
40117;BME280;25829;50.228;18.936;2023-04-16T04:32:47;98385.06;;;4.92;76.02
40117;BME280;25829;50.228;18.936;2023-04-16T04:35:49;98386.16;;;4.97;75.88
40117;BME280;25829;50.228;18.936;2023-04-16T04:38:51;98393.78;;;5.07;75.82
40117;BME280;25829;50.228;18.936;2023-04-16T04:41:53;98399.81;;;5.07;75.50
40117;BME280;25829;50.228;18.936;2023-04-16T04:44:57;98396.50;;;5.13;75.91
40117;BME280;25829;50.228;18.936;2023-04-16T04:47:58;98401.84;;;5.20;76.28
40117;BME280;25829;50.228;18.936;2023-04-16T04:51:07;98395.09;;;5.26;76.02
40117;BME280;25829;50.228;18.936;2023-04-16T04:54:11;98404.25;;;5.30;75.88
40117;BME280;25829;50.228;18.936;2023-04-16T04:57:12;98404.16;;;5.38;75.69
40117;BME280;25829;50.228;18.936;2023-04-16T05:00:25;98408.72;;;5.44;75.69
40117;BME280;25829;50.228;18.936;2023-04-16T05:03:28;98408.97;;;5.49;76.11
40117;BME280;25829;50.228;18.936;2023-04-16T05:06:35;98418.75;;;5.55;76.10
40117;BME280;25829;50.228;18.936;2023-04-16T05:09:39;98416.25;;;5.62;75.51
40117;BME280;25829;50.228;18.936;2023-04-16T05:12:40;98425.09;;;5.61;75.63
40117;BME280;25829;50.228;18.936;2023-04-16T05:15:40;98436.72;;;5.58;75.49
40117;BME280;25829;50.228;18.936;2023-04-16T05:18:41;98432.88;;;5.46;76.05
40117;BME280;25829;50.228;18.936;2023-04-16T05:21:42;98430.44;;;5.45;76.55
40117;BME280;25829;50.228;18.936;2023-04-16T05:24:46;98432.84;;;5.54;76.19
40117;BME280;25829;50.228;18.936;2023-04-16T05:27:49;98423.41;;;5.68;76.10
40117;BME280;25829;50.228;18.936;2023-04-16T05:30:56;98427.03;;;5.82;76.18
40117;BME280;25829;50.228;18.936;2023-04-16T05:33:57;98435.75;;;5.97;76.37
40117;BME280;25829;50.228;18.936;2023-04-16T05:36:58;98432.53;;;6.10;75.79
40117;BME280;25829;50.228;18.936;2023-04-16T05:39:59;98422.84;;;6.25;75.68
40117;BME280;25829;50.228;18.936;2023-04-16T05:43:00;98427.38;;;6.46;75.93
40117;BME280;25829;50.228;18.936;2023-04-16T05:46:00;98427.91;;;6.71;76.05
40117;BME280;25829;50.228;18.936;2023-04-16T05:49:01;98435.38;;;6.89;75.28
40117;BME280;25829;50.228;18.936;2023-04-16T05:52:03;98443.75;;;6.99;74.77
40117;BME280;25829;50.228;18.936;2023-04-16T05:55:04;98457.56;;;7.08;74.58
40117;BME280;25829;50.228;18.936;2023-04-16T05:58:06;98452.19;;;7.16;74.49
40117;BME280;25829;50.228;18.936;2023-04-16T06:01:10;98454.53;;;7.26;74.67
40117;BME280;25829;50.228;18.936;2023-04-16T06:04:24;98452.03;;;7.39;74.98
40117;BME280;25829;50.228;18.936;2023-04-16T06:07:28;98454.34;;;7.49;74.89
40117;BME280;25829;50.228;18.936;2023-04-16T06:10:47;98456.31;;;7.62;74.47
40117;BME280;25829;50.228;18.936;2023-04-16T06:13:48;98460.41;;;7.71;74.75
40117;BME280;25829;50.228;18.936;2023-04-16T06:16:49;98460.16;;;7.87;74.56
40117;BME280;25829;50.228;18.936;2023-04-16T06:19:50;98460.28;;;8.01;74.49
40117;BME280;25829;50.228;18.936;2023-04-16T06:22:51;98471.31;;;8.17;74.53
40117;BME280;25829;50.228;18.936;2023-04-16T06:25:55;98467.13;;;8.30;74.21
40117;BME280;25829;50.228;18.936;2023-04-16T06:28:59;98462.59;;;8.45;74.78
40117;BME280;25829;50.228;18.936;2023-04-16T06:32:00;98474.97;;;8.58;74.42
40117;BME280;25829;50.228;18.936;2023-04-16T06:35:01;98471.66;;;8.77;74.69
40117;BME280;25829;50.228;18.936;2023-04-16T06:38:02;98486.50;;;8.98;74.31
40117;BME280;25829;50.228;18.936;2023-04-16T06:41:20;98489.63;;;9.15;73.93
40117;BME280;25829;50.228;18.936;2023-04-16T06:44:47;98469.00;;;9.25;73.83
40117;BME280;25829;50.228;18.936;2023-04-16T06:47:48;98483.16;;;9.31;73.76
40117;BME280;25829;50.228;18.936;2023-04-16T06:50:50;98473.31;;;9.39;73.60
40117;BME280;25829;50.228;18.936;2023-04-16T06:53:51;98477.19;;;9.50;73.32
40117;BME280;25829;50.228;18.936;2023-04-16T06:56:52;98477.59;;;9.67;73.34
40117;BME280;25829;50.228;18.936;2023-04-16T07:00:05;98487.75;;;9.77;72.66
40117;BME280;25829;50.228;18.936;2023-04-16T07:03:14;98481.06;;;9.81;72.58
40117;BME280;25829;50.228;18.936;2023-04-16T07:09:39;98488.97;;;9.94;72.16
40117;BME280;25829;50.228;18.936;2023-04-16T07:12:47;98490.19;;;9.98;72.50
40117;BME280;25829;50.228;18.936;2023-04-16T07:16:22;98487.56;;;10.18;72.42
40117;BME280;25829;50.228;18.936;2023-04-16T07:19:26;98485.91;;;10.30;72.09
40117;BME280;25829;50.228;18.936;2023-04-16T07:22:36;98485.50;;;10.40;71.77
40117;BME280;25829;50.228;18.936;2023-04-16T07:25:36;98483.47;;;10.42;71.19
40117;BME280;25829;50.228;18.936;2023-04-16T07:28:37;98487.88;;;10.55;71.35
40117;BME280;25829;50.228;18.936;2023-04-16T07:31:38;98488.28;;;10.65;70.97
40117;BME280;25829;50.228;18.936;2023-04-16T07:34:48;98493.53;;;10.72;70.35
40117;BME280;25829;50.228;18.936;2023-04-16T07:37:49;98501.06;;;10.68;69.99
40117;BME280;25829;50.228;18.936;2023-04-16T07:44:46;98509.72;;;11.02;69.53
40117;BME280;25829;50.228;18.936;2023-04-16T07:47:47;98514.34;;;11.06;68.95
40117;BME280;25829;50.228;18.936;2023-04-16T07:50:48;98522.09;;;11.08;68.88
40117;BME280;25829;50.228;18.936;2023-04-16T07:53:49;98521.63;;;11.11;69.02
40117;BME280;25829;50.228;18.936;2023-04-16T07:56:51;98526.25;;;11.29;69.35
40117;BME280;25829;50.228;18.936;2023-04-16T08:03:28;98526.59;;;11.77;68.29
40117;BME280;25829;50.228;18.936;2023-04-16T08:06:29;98530.09;;;12.03;67.18
40117;BME280;25829;50.228;18.936;2023-04-16T08:09:33;98538.38;;;12.13;66.61
40117;BME280;25829;50.228;18.936;2023-04-16T08:12:41;98540.63;;;12.10;65.56
40117;BME280;25829;50.228;18.936;2023-04-16T08:15:42;98540.25;;;12.06;65.67
40117;BME280;25829;50.228;18.936;2023-04-16T08:18:49;98544.75;;;12.06;65.50
40117;BME280;25829;50.228;18.936;2023-04-16T08:24:55;98538.16;;;12.40;66.58
40117;BME280;25829;50.228;18.936;2023-04-16T08:27:55;98544.75;;;12.74;64.67
40117;BME280;25829;50.228;18.936;2023-04-16T08:30:56;98546.88;;;12.84;64.00
40117;BME280;25829;50.228;18.936;2023-04-16T08:33:57;98551.72;;;12.68;62.97
40117;BME280;25829;50.228;18.936;2023-04-16T08:36:58;98552.28;;;12.52;63.41
40117;BME280;25829;50.228;18.936;2023-04-16T08:39:59;98552.75;;;12.42;64.04
40117;BME280;25829;50.228;18.936;2023-04-16T08:43:28;98550.28;;;13.09;64.22
40117;BME280;25829;50.228;18.936;2023-04-16T08:46:38;98541.47;;;14.18;63.70
40117;BME280;25829;50.228;18.936;2023-04-16T08:49:43;98536.09;;;15.23;61.79
40117;BME280;25829;50.228;18.936;2023-04-16T08:53:04;98541.81;;;16.01;57.56
40117;BME280;25829;50.228;18.936;2023-04-16T08:56:26;98546.06;;;16.02;57.24
40117;BME280;25829;50.228;18.936;2023-04-16T08:59:33;98543.13;;;16.32;58.63
40117;BME280;25829;50.228;18.936;2023-04-16T09:02:34;98544.19;;;17.09;58.93
40117;BME280;25829;50.228;18.936;2023-04-16T09:05:41;98542.47;;;17.68;57.27
40117;BME280;25829;50.228;18.936;2023-04-16T09:08:44;98543.19;;;17.86;56.72
40117;BME280;25829;50.228;18.936;2023-04-16T09:11:49;98549.28;;;18.08;55.06
40117;BME280;25829;50.228;18.936;2023-04-16T09:14:56;98557.81;;;18.05;54.78
40117;BME280;25829;50.228;18.936;2023-04-16T09:18:00;98548.72;;;17.79;54.35
40117;BME280;25829;50.228;18.936;2023-04-16T09:21:09;98556.16;;;17.50;51.35
40117;BME280;25829;50.228;18.936;2023-04-16T09:24:38;98557.56;;;16.92;53.28
40117;BME280;25829;50.228;18.936;2023-04-16T09:27:39;98557.06;;;16.56;53.97
40117;BME280;25829;50.228;18.936;2023-04-16T09:30:40;98556.59;;;16.25;54.36
40117;BME280;25829;50.228;18.936;2023-04-16T09:34:03;98556.56;;;16.09;54.53
40117;BME280;25829;50.228;18.936;2023-04-16T09:37:17;98556.72;;;16.02;54.91
40117;BME280;25829;50.228;18.936;2023-04-16T09:40:23;98557.91;;;15.94;54.69
40117;BME280;25829;50.228;18.936;2023-04-16T09:43:26;98562.00;;;15.85;55.11
40117;BME280;25829;50.228;18.936;2023-04-16T09:46:33;98570.91;;;15.91;52.94
40117;BME280;25829;50.228;18.936;2023-04-16T09:49:40;98564.06;;;16.12;52.66
40117;BME280;25829;50.228;18.936;2023-04-16T09:52:44;98563.66;;;16.20;51.79
40117;BME280;25829;50.228;18.936;2023-04-16T09:55:45;98559.53;;;15.95;52.11
40117;BME280;25829;50.228;18.936;2023-04-16T09:58:46;98562.16;;;15.78;52.36
40117;BME280;25829;50.228;18.936;2023-04-16T10:01:48;98565.75;;;15.44;51.89
40117;BME280;25829;50.228;18.936;2023-04-16T10:04:52;98574.38;;;15.11;52.34
40117;BME280;25829;50.228;18.936;2023-04-16T10:07:59;98568.28;;;14.87;52.80
40117;BME280;25829;50.228;18.936;2023-04-16T10:11:02;98568.09;;;14.65;53.17
40117;BME280;25829;50.228;18.936;2023-04-16T10:14:04;98566.44;;;14.40;53.24
40117;BME280;25829;50.228;18.936;2023-04-16T10:17:04;98569.53;;;14.25;53.46
40117;BME280;25829;50.228;18.936;2023-04-16T10:20:06;98566.25;;;14.11;53.35
40117;BME280;25829;50.228;18.936;2023-04-16T10:23:07;98575.47;;;14.09;53.80
40117;BME280;25829;50.228;18.936;2023-04-16T10:26:08;98574.66;;;14.08;52.90
40117;BME280;25829;50.228;18.936;2023-04-16T10:29:10;98573.88;;;14.08;53.30
40117;BME280;25829;50.228;18.936;2023-04-16T10:32:11;98568.47;;;14.14;54.71
40117;BME280;25829;50.228;18.936;2023-04-16T10:35:18;98575.91;;;14.24;54.26
40117;BME280;25829;50.228;18.936;2023-04-16T10:38:24;98588.31;;;14.24;54.92
40117;BME280;25829;50.228;18.936;2023-04-16T10:41:25;98578.16;;;14.21;54.55
40117;BME280;25829;50.228;18.936;2023-04-16T10:44:30;98583.84;;;14.24;54.23
40117;BME280;25829;50.228;18.936;2023-04-16T10:47:31;98580.50;;;14.29;54.20
40117;BME280;25829;50.228;18.936;2023-04-16T10:50:35;98584.75;;;14.30;53.46
40117;BME280;25829;50.228;18.936;2023-04-16T10:53:36;98577.81;;;14.17;53.28
40117;BME280;25829;50.228;18.936;2023-04-16T10:56:37;98580.75;;;13.97;53.42
40117;BME280;25829;50.228;18.936;2023-04-16T10:59:41;98581.44;;;13.93;51.99
40117;BME280;25829;50.228;18.936;2023-04-16T11:02:42;98581.97;;;13.83;52.83
40117;BME280;25829;50.228;18.936;2023-04-16T11:05:46;98592.50;;;13.89;54.27
40117;BME280;25829;50.228;18.936;2023-04-16T11:08:46;98586.06;;;13.97;54.17
40117;BME280;25829;50.228;18.936;2023-04-16T11:11:47;98590.59;;;14.08;54.70
40117;BME280;25829;50.228;18.936;2023-04-16T11:14:51;98595.47;;;14.23;55.01
40117;BME280;25829;50.228;18.936;2023-04-16T11:17:52;98582.72;;;14.32;54.56
40117;BME280;25829;50.228;18.936;2023-04-16T11:20:54;98580.06;;;14.44;54.07
40117;BME280;25829;50.228;18.936;2023-04-16T11:23:56;98581.56;;;14.63;54.27
40117;BME280;25829;50.228;18.936;2023-04-16T11:26:57;98581.69;;;14.80;53.44
40117;BME280;25829;50.228;18.936;2023-04-16T11:33:07;98588.34;;;15.06;52.77
40117;BME280;25829;50.228;18.936;2023-04-16T11:39:10;98584.13;;;14.93;51.50
40117;BME280;25829;50.228;18.936;2023-04-16T11:42:18;98584.78;;;14.89;50.83
40117;BME280;25829;50.228;18.936;2023-04-16T11:45:19;98583.44;;;14.86;50.92
40117;BME280;25829;50.228;18.936;2023-04-16T11:48:20;98584.44;;;14.85;51.05
40117;BME280;25829;50.228;18.936;2023-04-16T11:51:21;98587.69;;;14.87;51.14
40117;BME280;25829;50.228;18.936;2023-04-16T11:54:23;98578.13;;;14.86;51.20
40117;BME280;25829;50.228;18.936;2023-04-16T11:57:29;98585.16;;;14.69;49.58
40117;BME280;25829;50.228;18.936;2023-04-16T12:00:34;98590.34;;;14.64;50.24
40117;BME280;25829;50.228;18.936;2023-04-16T12:03:39;98585.84;;;14.64;50.18
40117;BME280;25829;50.228;18.936;2023-04-16T12:07:11;98581.00;;;14.61;48.74
40117;BME280;25829;50.228;18.936;2023-04-16T12:10:12;98586.53;;;14.59;49.93
40117;BME280;25829;50.228;18.936;2023-04-16T12:13:15;98588.59;;;14.57;49.18
40117;BME280;25829;50.228;18.936;2023-04-16T12:16:18;98575.31;;;14.57;49.91
40117;BME280;25829;50.228;18.936;2023-04-16T12:19:20;98580.06;;;14.67;50.56
40117;BME280;25829;50.228;18.936;2023-04-16T12:22:38;98582.97;;;14.77;50.38
40117;BME280;25829;50.228;18.936;2023-04-16T12:25:41;98583.53;;;14.79;50.98
40117;BME280;25829;50.228;18.936;2023-04-16T12:28:42;98579.47;;;14.89;50.95
40117;BME280;25829;50.228;18.936;2023-04-16T12:31:43;98576.59;;;14.90;50.72
40117;BME280;25829;50.228;18.936;2023-04-16T12:34:50;98578.22;;;14.91;50.84
40117;BME280;25829;50.228;18.936;2023-04-16T12:37:51;98579.25;;;14.90;50.54
40117;BME280;25829;50.228;18.936;2023-04-16T12:40:52;98578.22;;;14.91;50.67
40117;BME280;25829;50.228;18.936;2023-04-16T12:44:09;98575.34;;;14.93;50.46
40117;BME280;25829;50.228;18.936;2023-04-16T12:47:13;98578.00;;;14.93;51.25
40117;BME280;25829;50.228;18.936;2023-04-16T12:50:14;98578.09;;;14.98;50.95
40117;BME280;25829;50.228;18.936;2023-04-16T12:53:15;98580.03;;;15.02;50.88
40117;BME280;25829;50.228;18.936;2023-04-16T12:56:15;98576.91;;;15.05;50.29
40117;BME280;25829;50.228;18.936;2023-04-16T12:59:16;98574.25;;;15.05;50.21
40117;BME280;25829;50.228;18.936;2023-04-16T13:02:17;98566.28;;;15.05;50.31
40117;BME280;25829;50.228;18.936;2023-04-16T13:05:18;98570.59;;;15.06;50.16
40117;BME280;25829;50.228;18.936;2023-04-16T13:08:19;98568.50;;;15.08;49.67
40117;BME280;25829;50.228;18.936;2023-04-16T13:11:20;98566.88;;;15.07;49.42
40117;BME280;25829;50.228;18.936;2023-04-16T13:14:21;98572.66;;;15.04;48.77
40117;BME280;25829;50.228;18.936;2023-04-16T13:17:22;98563.28;;;15.02;48.32
40117;BME280;25829;50.228;18.936;2023-04-16T13:20:22;98569.31;;;14.97;48.10
40117;BME280;25829;50.228;18.936;2023-04-16T13:23:23;98566.66;;;14.97;48.27
40117;BME280;25829;50.228;18.936;2023-04-16T13:26:25;98560.63;;;15.02;48.81
40117;BME280;25829;50.228;18.936;2023-04-16T13:29:26;98562.75;;;15.00;48.11
40117;BME280;25829;50.228;18.936;2023-04-16T13:32:27;98560.63;;;15.02;47.80
40117;BME280;25829;50.228;18.936;2023-04-16T13:35:28;98555.34;;;14.90;46.06
40117;BME280;25829;50.228;18.936;2023-04-16T13:38:29;98556.53;;;14.71;46.42
40117;BME280;25829;50.228;18.936;2023-04-16T13:41:30;98553.53;;;14.67;47.44
40117;BME280;25829;50.228;18.936;2023-04-16T13:44:31;98550.19;;;14.72;47.31
40117;BME280;25829;50.228;18.936;2023-04-16T13:47:31;98552.34;;;14.75;46.52
40117;BME280;25829;50.228;18.936;2023-04-16T13:50:32;98538.38;;;14.68;45.87
40117;BME280;25829;50.228;18.936;2023-04-16T13:53:34;98543.81;;;14.61;46.66
40117;BME280;25829;50.228;18.936;2023-04-16T13:56:35;98546.00;;;14.64;46.86
40117;BME280;25829;50.228;18.936;2023-04-16T13:59:36;98550.97;;;14.60;46.02
40117;BME280;25829;50.228;18.936;2023-04-16T14:02:38;98548.31;;;14.60;46.00
40117;BME280;25829;50.228;18.936;2023-04-16T14:05:39;98553.75;;;14.66;45.80
40117;BME280;25829;50.228;18.936;2023-04-16T14:08:40;98548.09;;;14.74;46.01
40117;BME280;25829;50.228;18.936;2023-04-16T14:11:41;98553.88;;;14.82;46.29
40117;BME280;25829;50.228;18.936;2023-04-16T14:14:42;98550.50;;;14.87;46.14
40117;BME280;25829;50.228;18.936;2023-04-16T14:17:43;98550.03;;;14.90;46.36
40117;BME280;25829;50.228;18.936;2023-04-16T14:20:46;98549.47;;;14.88;45.68
40117;BME280;25829;50.228;18.936;2023-04-16T14:23:47;98544.16;;;14.88;45.82
40117;BME280;25829;50.228;18.936;2023-04-16T14:26:47;98549.72;;;14.87;45.84
40117;BME280;25829;50.228;18.936;2023-04-16T14:29:48;98550.88;;;14.79;45.38
40117;BME280;25829;50.228;18.936;2023-04-16T14:32:50;98544.97;;;14.77;45.49
40117;BME280;25829;50.228;18.936;2023-04-16T14:35:51;98542.91;;;14.79;46.04
40117;BME280;25829;50.228;18.936;2023-04-16T14:38:52;98552.22;;;14.81;45.33
40117;BME280;25829;50.228;18.936;2023-04-16T14:41:52;98555.00;;;14.75;44.67
40117;BME280;25829;50.228;18.936;2023-04-16T14:44:56;98556.53;;;14.71;44.98
40117;BME280;25829;50.228;18.936;2023-04-16T14:47:57;98547.97;;;14.57;45.97
40117;BME280;25829;50.228;18.936;2023-04-16T14:50:58;98555.25;;;14.50;47.43
40117;BME280;25829;50.228;18.936;2023-04-16T14:53:59;98548.78;;;14.46;48.18
40117;BME280;25829;50.228;18.936;2023-04-16T14:57:00;98552.16;;;14.41;48.50
40117;BME280;25829;50.228;18.936;2023-04-16T15:00:01;98552.25;;;14.34;48.43
40117;BME280;25829;50.228;18.936;2023-04-16T15:03:07;98545.44;;;14.27;48.64
40117;BME280;25829;50.228;18.936;2023-04-16T15:06:07;98551.19;;;14.24;48.83
40117;BME280;25829;50.228;18.936;2023-04-16T15:09:08;98552.19;;;14.23;48.94
40117;BME280;25829;50.228;18.936;2023-04-16T15:12:09;98545.97;;;14.17;48.86
40117;BME280;25829;50.228;18.936;2023-04-16T15:15:10;98554.16;;;14.15;48.52
40117;BME280;25829;50.228;18.936;2023-04-16T15:18:11;98554.72;;;14.06;48.67
40117;BME280;25829;50.228;18.936;2023-04-16T15:21:11;98555.19;;;14.03;49.25
40117;BME280;25829;50.228;18.936;2023-04-16T15:24:12;98552.28;;;14.04;48.96
40117;BME280;25829;50.228;18.936;2023-04-16T15:27:13;98554.94;;;14.04;48.88
40117;BME280;25829;50.228;18.936;2023-04-16T15:30:14;98561.50;;;14.02;48.67
40117;BME280;25829;50.228;18.936;2023-04-16T15:33:15;98560.03;;;14.06;48.66
40117;BME280;25829;50.228;18.936;2023-04-16T15:36:15;98555.53;;;14.06;48.13
40117;BME280;25829;50.228;18.936;2023-04-16T15:39:16;98568.66;;;14.01;48.71
40117;BME280;25829;50.228;18.936;2023-04-16T15:42:17;98562.34;;;14.02;49.16
40117;BME280;25829;50.228;18.936;2023-04-16T15:45:18;98566.13;;;14.06;49.20
40117;BME280;25829;50.228;18.936;2023-04-16T15:48:18;98573.66;;;14.09;48.99
40117;BME280;25829;50.228;18.936;2023-04-16T15:51:19;98570.28;;;14.02;49.22
40117;BME280;25829;50.228;18.936;2023-04-16T15:54:20;98567.63;;;14.02;49.46
40117;BME280;25829;50.228;18.936;2023-04-16T15:57:21;98564.97;;;14.02;49.40
40117;BME280;25829;50.228;18.936;2023-04-16T16:00:21;98560.03;;;14.06;49.56
40117;BME280;25829;50.228;18.936;2023-04-16T16:03:23;98572.47;;;14.05;49.35
40117;BME280;25829;50.228;18.936;2023-04-16T16:06:25;98577.66;;;14.00;49.64
40117;BME280;25829;50.228;18.936;2023-04-16T16:09:26;98582.16;;;14.00;49.70
40117;BME280;25829;50.228;18.936;2023-04-16T16:12:27;98576.50;;;13.96;49.52
40117;BME280;25829;50.228;18.936;2023-04-16T16:15:28;98582.25;;;13.93;49.61
40117;BME280;25829;50.228;18.936;2023-04-16T16:18:32;98589.16;;;13.94;49.30
40117;BME280;25829;50.228;18.936;2023-04-16T16:21:33;98588.00;;;13.90;48.90
40117;BME280;25829;50.228;18.936;2023-04-16T16:24:33;98579.19;;;13.78;48.42